createdAt,value
2022-12-25T00:01:55.210Z,41.83
2022-12-25T00:04:23.247Z,42.87
2022-12-25T00:06:51.378Z,43.70
2022-12-25T00:09:20.783Z,43.23
2022-12-25T00:11:48.963Z,44.23
2022-12-25T00:14:16.985Z,43.50
2022-12-25T00:16:46.144Z,44.07
2022-12-25T00:19:14.252Z,43.97
2022-12-25T00:21:42.325Z,41.20
2022-12-25T00:24:10.817Z,43.80
2022-12-25T00:26:40.405Z,43.40
2022-12-25T00:29:08.520Z,43.93
2022-12-25T00:31:36.717Z,43.67
2022-12-25T00:34:04.888Z,43.30
2022-12-25T00:36:39.496Z,44.57
2022-12-25T00:39:09.700Z,43.90
2022-12-25T00:41:55.181Z,44.40
2022-12-25T00:44:24.662Z,43.57
2022-12-25T00:46:52.811Z,43.13
2022-12-25T00:49:22.811Z,44.40
2022-12-25T00:51:50.913Z,43.87
2022-12-25T00:54:19.376Z,43.27
2022-12-25T00:56:48.096Z,44.30
2022-12-25T00:59:16.293Z,43.97
2022-12-25T01:01:45.893Z,45.10
2022-12-25T01:04:14.694Z,44.07
2022-12-25T01:06:42.820Z,44.13
2022-12-25T01:09:28.336Z,45.37
2022-12-25T01:11:56.489Z,45.93
2022-12-25T01:14:24.533Z,45.40
2022-12-25T01:16:54.071Z,46.47
2022-12-25T01:19:22.307Z,46.97
2022-12-25T01:21:50.332Z,47.07
2022-12-25T01:24:18.509Z,47.10
2022-12-25T01:26:46.633Z,47.73
2022-12-25T01:29:14.700Z,49.40
2022-12-25T01:31:42.831Z,49.90
2022-12-25T01:34:12.314Z,50.03
2022-12-25T01:36:40.387Z,50.50
2022-12-25T01:39:08.445Z,49.67
2022-12-25T01:41:36.585Z,49.50
2022-12-25T01:44:07.744Z,50.97
2022-12-25T01:46:36.871Z,50.47
2022-12-25T01:49:09.674Z,50.63
2022-12-25T01:51:43.875Z,51.23
2022-12-25T01:54:17.226Z,51.00
2022-12-25T01:56:49.235Z,49.10
2022-12-25T01:59:20.710Z,49.70
2022-12-25T02:01:49.751Z,47.63
2022-12-25T02:04:23.439Z,46.60
2022-12-25T02:06:53.097Z,48.27
2022-12-25T02:09:21.163Z,48.80
2022-12-25T02:11:57.974Z,49.90
2022-12-25T02:14:26.770Z,48.13
2022-12-25T02:17:02.109Z,48.83
2022-12-25T02:19:50.259Z,49.83
2022-12-25T02:22:31.351Z,48.70
2022-12-25T02:25:13.855Z,49.20
2022-12-25T02:28:11.375Z,48.83
2022-12-25T02:30:43.990Z,49.03
2022-12-25T02:33:34.485Z,50.00
2022-12-25T02:36:08.630Z,51.30
2022-12-25T02:38:59.994Z,52.90
2022-12-25T02:41:30.218Z,52.70
2022-12-25T02:44:20.245Z,51.37
2022-12-25T02:47:06.565Z,51.53
2022-12-25T02:49:53.935Z,52.00
2022-12-25T02:52:41.737Z,51.83
2022-12-25T02:55:31.488Z,51.60
2022-12-25T02:58:26.698Z,52.70
2022-12-25T03:01:19.547Z,51.17
2022-12-25T03:04:08.958Z,53.07
2022-12-25T03:06:44.759Z,52.67
2022-12-25T03:09:36.217Z,52.17
2022-12-25T03:12:14.578Z,52.50
2022-12-25T03:15:00.404Z,52.07
2022-12-25T03:17:31.580Z,53.30
2022-12-25T03:20:17.114Z,51.70
2022-12-25T03:23:04.994Z,52.40
2022-12-25T03:25:51.409Z,53.13
2022-12-25T03:28:19.607Z,53.77
2022-12-25T03:31:14.185Z,53.77
2022-12-25T03:34:17.527Z,53.43
2022-12-25T03:36:59.147Z,54.30
2022-12-25T03:39:53.465Z,54.73
2022-12-25T03:42:38.907Z,55.67
2022-12-25T03:45:31.823Z,56.23
2022-12-25T03:48:23.241Z,54.60
2022-12-25T03:51:15.466Z,54.03
2022-12-25T03:54:05.486Z,52.97
2022-12-25T03:56:52.518Z,53.10
2022-12-25T03:59:39.226Z,53.53
2022-12-25T04:02:25.287Z,53.63
2022-12-25T04:05:10.999Z,53.00
2022-12-25T04:07:57.832Z,52.37
2022-12-25T04:10:43.568Z,52.20
2022-12-25T04:13:28.927Z,54.67
2022-12-25T04:16:14.564Z,53.47
2022-12-25T04:18:59.961Z,53.50
2022-12-25T04:21:46.077Z,54.97
2022-12-25T04:24:33.075Z,55.97
2022-12-25T04:27:18.441Z,57.03
2022-12-25T04:30:03.791Z,58.00
2022-12-25T04:32:49.149Z,57.83
2022-12-25T04:35:35.046Z,58.67
2022-12-25T04:38:03.446Z,56.97
2022-12-25T04:40:32.877Z,55.47
2022-12-25T04:43:00.935Z,54.07
2022-12-25T04:45:29.037Z,54.87
2022-12-25T04:47:57.203Z,54.40
2022-12-25T04:50:25.269Z,56.43
2022-12-25T04:52:53.344Z,56.77
2022-12-25T04:55:21.517Z,55.83
2022-12-25T04:57:50.954Z,55.73
2022-12-25T05:00:19.687Z,56.87
2022-12-25T05:02:47.791Z,57.10
2022-12-25T05:05:16.045Z,57.60
2022-12-25T05:07:44.187Z,56.93
2022-12-25T05:10:12.850Z,58.27
2022-12-25T05:12:40.887Z,60.20
2022-12-25T05:15:11.535Z,58.43
2022-12-25T05:17:39.642Z,59.17
2022-12-25T05:20:08.920Z,59.83
2022-12-25T05:22:36.993Z,57.93
2022-12-25T05:25:05.390Z,59.63
2022-12-25T05:27:33.448Z,58.90
2022-12-25T05:30:01.548Z,60.30
2022-12-25T05:32:31.065Z,60.10
2022-12-25T05:35:00.380Z,60.43
2022-12-25T05:37:28.429Z,60.90
2022-12-25T05:39:56.475Z,59.10
2022-12-25T05:42:24.530Z,59.20
2022-12-25T05:44:52.606Z,58.73
2022-12-25T05:47:20.664Z,59.40
2022-12-25T05:49:50.178Z,58.93
2022-12-25T05:52:18.293Z,60.47
2022-12-25T05:54:46.321Z,59.63
2022-12-25T05:57:14.533Z,60.23
2022-12-25T05:59:42.651Z,59.97
2022-12-25T06:02:10.832Z,61.10
2022-12-25T06:04:38.928Z,61.50
2022-12-25T06:07:08.540Z,62.07
2022-12-25T06:09:36.681Z,61.23
2022-12-25T06:12:05.333Z,61.07
2022-12-25T06:14:33.570Z,58.90
2022-12-25T06:17:01.828Z,61.23
2022-12-25T06:19:29.969Z,58.90
2022-12-25T06:21:58.098Z,59.83
2022-12-25T06:24:27.816Z,58.33
2022-12-25T06:26:55.925Z,59.47
2022-12-25T06:29:24.111Z,58.67
2022-12-25T06:31:57.214Z,58.03
2022-12-25T06:34:25.654Z,57.73
2022-12-25T06:36:53.874Z,58.33
2022-12-25T06:39:22.661Z,57.67
2022-12-25T06:41:52.144Z,57.57
2022-12-25T06:44:20.323Z,58.33
2022-12-25T06:46:48.405Z,58.20
2022-12-25T06:49:16.566Z,57.50
2022-12-25T06:51:44.656Z,57.67
2022-12-25T06:54:12.821Z,57.07
2022-12-25T06:56:40.900Z,56.87
2022-12-25T06:59:12.237Z,53.90
2022-12-25T07:01:47.264Z,54.23
2022-12-25T07:04:20.637Z,53.30
2022-12-25T07:06:48.848Z,55.33
2022-12-25T07:09:16.877Z,54.13
2022-12-25T07:11:45.030Z,53.37
2022-12-25T07:14:23.773Z,52.90
2022-12-25T07:16:53.190Z,52.13
2022-12-25T07:19:21.319Z,54.17
2022-12-25T07:21:49.660Z,52.67
2022-12-25T07:24:20.311Z,52.77
2022-12-25T07:26:48.512Z,54.53
2022-12-25T07:29:19.503Z,53.73
2022-12-25T07:31:47.928Z,53.83
2022-12-25T07:34:17.805Z,50.50
2022-12-25T07:36:46.197Z,51.70
2022-12-25T07:39:14.456Z,51.00
2022-12-25T07:41:42.478Z,48.40
2022-12-25T07:44:15.839Z,48.33
2022-12-25T07:46:45.410Z,47.53
2022-12-25T07:49:13.792Z,46.30
2022-12-25T07:51:41.815Z,47.30
2022-12-25T07:54:10.033Z,47.00
2022-12-25T07:56:38.103Z,45.03
2022-12-25T07:59:06.217Z,43.40
2022-12-25T08:01:34.572Z,44.13
2022-12-25T08:04:04.630Z,43.30
2022-12-25T08:06:34.501Z,42.37
2022-12-25T08:09:06.140Z,42.20
2022-12-25T08:11:34.316Z,40.60
2022-12-25T08:14:02.428Z,41.00
2022-12-25T08:16:30.540Z,40.23
2022-12-25T08:18:58.627Z,39.90
2022-12-25T08:21:28.438Z,39.60
2022-12-25T08:23:56.573Z,38.33
2022-12-25T08:26:24.701Z,37.97
2022-12-25T08:28:53.262Z,38.23
2022-12-25T08:31:23.673Z,37.40
2022-12-25T08:33:53.668Z,37.43
2022-12-25T08:36:21.978Z,36.30
2022-12-25T08:38:54.580Z,36.20
2022-12-25T08:41:27.293Z,35.50
2022-12-25T08:43:55.446Z,35.07
2022-12-25T08:46:23.562Z,33.80
2022-12-25T08:48:51.885Z,33.10
2022-12-25T08:51:22.683Z,33.00
2022-12-25T08:53:53.820Z,32.30
2022-12-25T08:56:22.606Z,30.30
2022-12-25T08:58:50.786Z,29.10
2022-12-25T09:01:18.970Z,28.03
2022-12-25T09:03:47.146Z,27.77
2022-12-25T09:06:17.173Z,28.53
2022-12-25T09:08:49.267Z,27.67
2022-12-25T09:11:21.243Z,28.77
2022-12-25T09:13:50.097Z,27.90
2022-12-25T09:16:21.197Z,28.37
2022-12-25T09:18:50.216Z,28.80
2022-12-25T09:21:19.286Z,29.23
2022-12-25T09:23:47.640Z,28.63
2022-12-25T09:26:17.570Z,27.57
2022-12-25T09:28:51.998Z,27.30
2022-12-25T09:31:20.886Z,26.20
2022-12-25T09:33:49.583Z,26.87
2022-12-25T09:36:18.024Z,25.13
2022-12-25T09:38:46.070Z,24.33
2022-12-25T09:41:18.432Z,24.37
2022-12-25T09:43:52.569Z,25.47
2022-12-25T09:46:23.586Z,25.03
2022-12-25T09:49:03.806Z,24.50
2022-12-25T09:51:35.859Z,24.17
2022-12-25T09:54:12.031Z,24.40
2022-12-25T09:56:40.075Z,25.60
2022-12-25T09:59:18.383Z,23.93
2022-12-25T10:02:01.432Z,24.33
2022-12-25T10:04:52.665Z,23.53
2022-12-25T10:07:31.614Z,23.97
2022-12-25T10:10:10.731Z,24.63
2022-12-25T10:12:51.071Z,24.67
2022-12-25T10:15:31.721Z,24.23
2022-12-25T10:18:15.169Z,24.17
2022-12-25T10:20:51.529Z,24.83
2022-12-25T10:23:23.816Z,25.00
2022-12-25T10:25:53.930Z,24.97
2022-12-25T10:28:27.686Z,24.90
2022-12-25T10:31:02.669Z,23.53
2022-12-25T10:33:31.345Z,23.90
2022-12-25T10:35:59.570Z,22.53
2022-12-25T10:38:27.636Z,22.00
2022-12-25T10:41:14.693Z,22.23
2022-12-25T10:43:47.835Z,21.07
2022-12-25T10:46:19.148Z,21.83
2022-12-25T10:48:51.254Z,21.07
2022-12-25T10:51:29.792Z,20.27
2022-12-25T10:53:58.051Z,19.37
2022-12-25T10:56:26.159Z,18.73
2022-12-25T10:59:06.378Z,18.17
2022-12-25T11:01:36.182Z,19.07
2022-12-25T11:04:04.723Z,17.67
2022-12-25T11:06:34.633Z,17.47
2022-12-25T11:09:03.849Z,17.00
2022-12-25T11:11:32.468Z,15.40
2022-12-25T11:14:02.767Z,16.67
2022-12-25T11:16:33.055Z,16.03
2022-12-25T11:19:03.228Z,15.77
2022-12-25T11:21:33.276Z,15.80
2022-12-25T11:24:02.965Z,15.27
2022-12-25T11:26:36.559Z,15.13
2022-12-25T11:29:11.473Z,14.47
2022-12-25T11:31:42.421Z,14.37
2022-12-25T11:34:25.192Z,14.93
2022-12-25T11:36:54.574Z,13.40
2022-12-25T11:39:26.484Z,13.40
2022-12-25T11:42:00.525Z,13.10
2022-12-25T11:44:37.736Z,13.20
2022-12-25T11:47:13.011Z,12.43
2022-12-25T11:49:50.217Z,12.50
2022-12-25T11:52:21.537Z,11.43
2022-12-25T11:54:56.607Z,12.17
2022-12-25T11:57:27.977Z,11.93
2022-12-25T12:00:01.167Z,12.57
2022-12-25T12:02:35.809Z,10.70
2022-12-25T12:05:17.690Z,9.70
2022-12-25T12:07:58.315Z,8.40
2022-12-25T12:10:36.984Z,7.83
2022-12-25T12:13:29.587Z,7.97
2022-12-25T12:15:58.631Z,7.47
2022-12-25T12:18:32.187Z,7.82
2022-12-25T12:21:04.735Z,7.28
2022-12-25T12:23:35.968Z,7.03
2022-12-25T12:26:05.613Z,7.72
2022-12-25T12:28:45.884Z,7.82
2022-12-25T12:31:15.138Z,7.90
2022-12-25T12:33:50.702Z,7.53
2022-12-25T12:36:34.447Z,7.00
2022-12-25T12:39:03.626Z,6.47
2022-12-25T12:41:45.894Z,6.80
2022-12-25T12:44:16.522Z,7.43
2022-12-25T12:46:53.434Z,6.70
2022-12-25T12:49:27.013Z,6.37
2022-12-25T12:52:07.419Z,6.60
2022-12-25T12:54:54.526Z,6.50
2022-12-25T12:57:29.525Z,6.83
2022-12-25T13:00:04.823Z,7.33
2022-12-25T13:03:02.293Z,6.70
2022-12-25T13:05:39.836Z,6.87
2022-12-25T13:08:26.745Z,6.00
2022-12-25T13:11:06.585Z,6.30
2022-12-25T13:13:37.841Z,5.83
2022-12-25T13:16:07.577Z,5.70
2022-12-25T13:18:35.883Z,6.13
2022-12-25T13:21:06.460Z,6.10
2022-12-25T13:23:39.130Z,6.17
2022-12-25T13:26:13.589Z,6.57
2022-12-25T13:28:42.030Z,6.37
2022-12-25T13:31:16.333Z,5.70
2022-12-25T13:33:47.788Z,7.23
2022-12-25T13:36:16.330Z,7.07
2022-12-25T13:38:47.478Z,7.10
2022-12-25T13:41:37.824Z,7.10
2022-12-25T13:44:15.056Z,6.60
2022-12-25T13:46:43.163Z,7.43
2022-12-25T13:49:16.440Z,7.60
2022-12-25T13:51:44.826Z,7.27
2022-12-25T13:54:16.548Z,6.90
2022-12-25T13:56:51.403Z,7.93
2022-12-25T13:59:21.338Z,8.77
2022-12-25T14:01:50.758Z,7.93
2022-12-25T14:04:22.277Z,7.70
2022-12-25T14:06:52.003Z,8.83
2022-12-25T14:09:21.774Z,8.20
2022-12-25T14:11:52.510Z,7.87
2022-12-25T14:14:23.233Z,7.70
2022-12-25T14:16:56.519Z,7.40
2022-12-25T14:19:28.032Z,6.80
2022-12-25T14:22:00.459Z,7.33
2022-12-25T14:24:32.335Z,7.20
2022-12-25T14:27:02.903Z,7.70
2022-12-25T14:29:37.809Z,7.20
2022-12-25T14:32:08.885Z,7.97
2022-12-25T14:34:37.168Z,8.33
2022-12-25T14:37:05.923Z,8.10
2022-12-25T14:39:37.369Z,7.97
2022-12-25T14:42:14.984Z,7.57
2022-12-25T14:44:43.097Z,7.33
2022-12-25T14:47:22.349Z,7.53
2022-12-25T14:49:51.095Z,7.10
2022-12-25T14:52:22.773Z,8.47
2022-12-25T14:54:56.825Z,7.07
2022-12-25T14:57:30.108Z,8.10
2022-12-25T15:00:06.435Z,7.90
2022-12-25T15:02:41.670Z,7.90
2022-12-25T15:05:28.815Z,7.50
2022-12-25T15:08:21.953Z,8.40
2022-12-25T15:11:01.798Z,9.43
2022-12-25T15:13:31.935Z,9.13
2022-12-25T15:16:04.249Z,9.37
2022-12-25T15:18:37.821Z,10.60
2022-12-25T15:21:06.291Z,11.13
2022-12-25T15:23:34.426Z,11.97
2022-12-25T15:26:03.951Z,11.97
2022-12-25T15:28:32.111Z,12.13
2022-12-25T15:31:00.242Z,13.07
2022-12-25T15:33:29.564Z,13.73
2022-12-25T15:35:57.601Z,14.80
2022-12-25T15:38:25.810Z,14.97
2022-12-25T15:40:53.884Z,15.70
2022-12-25T15:43:40.370Z,16.17
2022-12-25T15:46:10.607Z,19.63
2022-12-25T15:48:38.753Z,21.47
2022-12-25T15:51:07.008Z,22.03
2022-12-25T15:53:35.086Z,22.10
2022-12-25T15:56:03.314Z,24.30
2022-12-25T15:58:32.840Z,25.20
2022-12-25T16:01:01.068Z,25.27
2022-12-25T16:03:29.198Z,25.93
2022-12-25T16:05:57.385Z,26.23
2022-12-25T16:08:25.496Z,26.43
2022-12-25T16:10:53.939Z,28.80
2022-12-25T16:13:23.289Z,29.73
2022-12-25T16:15:52.818Z,30.73
2022-12-25T16:18:21.391Z,31.90
2022-12-25T16:20:49.472Z,32.63
2022-12-25T16:23:17.657Z,32.37
2022-12-25T16:25:45.964Z,32.40
2022-12-25T16:28:14.223Z,33.47
2022-12-25T16:30:43.236Z,34.23
2022-12-25T16:33:13.023Z,35.13
2022-12-25T16:35:41.125Z,34.73
2022-12-25T16:38:09.193Z,35.80
2022-12-25T16:40:37.330Z,37.33
2022-12-25T16:43:05.352Z,36.67
2022-12-25T16:45:38.243Z,37.73
2022-12-25T16:48:06.685Z,40.07
2022-12-25T16:50:38.710Z,39.43
2022-12-25T16:53:06.939Z,41.00
2022-12-25T16:55:36.894Z,41.50
2022-12-25T16:58:05.151Z,41.33
2022-12-25T17:00:33.372Z,40.90
2022-12-25T17:03:01.802Z,42.47
2022-12-25T17:05:30.066Z,43.17
2022-12-25T17:08:00.396Z,43.03
2022-12-25T17:10:28.511Z,44.07
2022-12-25T17:12:56.713Z,45.77
2022-12-25T17:15:24.927Z,45.27
2022-12-25T17:17:52.961Z,45.93
2022-12-25T17:20:21.049Z,46.33
2022-12-25T17:22:50.096Z,44.97
2022-12-25T17:25:19.587Z,46.37
2022-12-25T17:27:50.371Z,46.83
2022-12-25T17:30:18.617Z,46.93
2022-12-25T17:32:47.192Z,45.37
2022-12-25T17:35:16.005Z,44.63
2022-12-25T17:37:44.039Z,46.33
2022-12-25T17:40:12.959Z,46.83
2022-12-25T17:42:42.484Z,46.73
2022-12-25T17:45:11.357Z,45.53
2022-12-25T17:47:39.386Z,48.00
2022-12-25T17:50:08.797Z,46.33
2022-12-25T17:52:36.880Z,49.53
2022-12-25T17:55:05.753Z,50.27
2022-12-25T17:57:33.859Z,48.87
2022-12-25T18:00:03.482Z,49.73
2022-12-25T18:02:32.976Z,52.23
2022-12-25T18:05:01.182Z,53.70
2022-12-25T18:07:29.277Z,52.83
2022-12-25T18:09:57.450Z,55.63
2022-12-25T18:12:25.529Z,55.93
2022-12-25T18:14:53.738Z,56.30
2022-12-25T18:17:23.216Z,54.83
2022-12-25T18:19:51.813Z,55.47
2022-12-25T18:22:19.865Z,55.57
2022-12-25T18:24:47.999Z,55.67
2022-12-25T18:27:16.108Z,56.20
2022-12-25T18:29:44.163Z,57.07
2022-12-25T18:32:12.312Z,57.87
2022-12-25T18:34:41.760Z,57.87
2022-12-25T18:37:09.822Z,56.33
2022-12-25T18:39:37.902Z,58.37
2022-12-25T18:42:23.525Z,59.43
2022-12-25T18:44:54.509Z,60.37
2022-12-25T18:47:22.752Z,58.60
2022-12-25T18:49:53.026Z,61.10
2022-12-25T18:52:50.130Z,63.13
2022-12-25T18:55:10.779Z,63.50
2022-12-25T18:57:40.867Z,61.67
2022-12-25T19:00:10.144Z,61.63
2022-12-25T19:02:38.327Z,63.50
2022-12-25T19:05:08.422Z,61.93
2022-12-25T19:07:37.181Z,63.70
2022-12-25T19:10:05.723Z,64.63
2022-12-25T19:12:33.883Z,62.83
2022-12-25T19:15:02.344Z,61.97
2022-12-25T19:17:32.101Z,61.60
2022-12-25T19:20:00.573Z,62.83
2022-12-25T19:22:30.592Z,60.20
2022-12-25T19:24:58.652Z,60.90
2022-12-25T19:27:26.755Z,61.10
2022-12-25T19:29:54.805Z,60.13
2022-12-25T19:32:23.000Z,60.20
2022-12-25T19:34:51.124Z,60.90
2022-12-25T19:37:19.318Z,62.40
2022-12-25T19:39:48.901Z,62.40
2022-12-25T19:42:18.961Z,62.83
2022-12-25T19:44:47.061Z,61.30
2022-12-25T19:47:15.131Z,61.80
2022-12-25T19:49:44.226Z,59.97
2022-12-25T19:52:14.090Z,62.77
2022-12-25T19:54:42.210Z,63.00
2022-12-25T19:57:11.636Z,63.80
2022-12-25T19:59:39.943Z,62.93
2022-12-25T20:02:10.608Z,61.97
2022-12-25T20:04:38.790Z,63.23
2022-12-25T20:07:06.852Z,64.50
2022-12-25T20:09:34.919Z,60.67
2022-12-25T20:12:03.076Z,61.90
2022-12-25T20:14:32.577Z,62.10
2022-12-25T20:17:00.784Z,64.50
2022-12-25T20:19:29.027Z,64.03
2022-12-25T20:21:58.628Z,63.60
2022-12-25T20:24:26.698Z,65.87
2022-12-25T20:26:58.990Z,62.93
2022-12-25T20:29:27.713Z,65.97
2022-12-25T20:31:57.179Z,63.73
2022-12-25T20:34:25.318Z,63.27
2022-12-25T20:36:53.546Z,63.73
2022-12-25T20:39:21.775Z,64.83
2022-12-25T20:41:49.859Z,63.50
2022-12-25T20:44:18.156Z,64.40
2022-12-25T20:46:46.234Z,64.07
2022-12-25T20:49:15.767Z,66.60
2022-12-25T20:51:43.871Z,67.57
2022-12-25T20:54:12.795Z,68.23
2022-12-25T20:56:40.826Z,68.10
2022-12-25T20:59:11.629Z,70.73
2022-12-25T21:01:39.874Z,71.07
2022-12-25T21:04:11.629Z,68.13
2022-12-25T21:06:45.405Z,70.03
2022-12-25T21:09:13.544Z,69.83
2022-12-25T21:11:41.603Z,69.43
2022-12-25T21:14:09.885Z,71.87
2022-12-25T21:16:38.008Z,69.67
2022-12-25T21:19:06.135Z,71.83
2022-12-25T21:21:36.027Z,70.43
2022-12-25T21:24:05.855Z,70.77
2022-12-25T21:26:33.965Z,70.53
2022-12-25T21:29:03.460Z,70.00
2022-12-25T21:31:51.977Z,72.20
2022-12-25T21:34:19.126Z,71.60
2022-12-25T21:36:47.229Z,73.27
2022-12-25T21:39:16.743Z,70.60
2022-12-25T21:41:44.899Z,69.83
2022-12-25T21:44:13.093Z,70.30
2022-12-25T21:46:41.242Z,71.37
2022-12-25T21:49:10.634Z,71.13
2022-12-25T21:51:56.304Z,72.30
2022-12-25T21:54:25.827Z,75.37
2022-12-25T21:56:53.861Z,75.63
2022-12-25T21:59:23.140Z,73.73
2022-12-25T22:01:52.860Z,73.00
2022-12-25T22:04:22.596Z,70.50
2022-12-25T22:07:08.118Z,75.43
2022-12-25T22:09:37.905Z,72.37
2022-12-25T22:12:26.214Z,72.50
2022-12-25T22:15:02.998Z,73.37
2022-12-25T22:17:51.390Z,71.57
2022-12-25T22:20:21.497Z,72.13
2022-12-25T22:22:50.372Z,70.57
2022-12-25T22:25:20.670Z,70.90
2022-12-25T22:27:49.367Z,69.57
2022-12-25T22:30:19.809Z,67.80
2022-12-25T22:32:48.412Z,66.43
2022-12-25T22:35:17.658Z,66.87
2022-12-25T22:37:45.890Z,63.70
2022-12-25T22:40:15.917Z,65.83
2022-12-25T22:42:45.399Z,65.80
2022-12-25T22:45:13.873Z,67.83
2022-12-25T22:47:42.532Z,65.17
2022-12-25T22:50:12.224Z,62.73
2022-12-25T22:52:41.178Z,62.20
2022-12-25T22:55:11.031Z,62.10
2022-12-25T22:57:39.144Z,62.77
2022-12-25T23:00:10.109Z,62.43
2022-12-25T23:02:38.488Z,61.37
2022-12-25T23:05:07.496Z,61.20
2022-12-25T23:07:35.700Z,59.10
2022-12-25T23:10:04.013Z,60.07
2022-12-25T23:12:49.357Z,58.13
2022-12-25T23:15:19.005Z,57.37
2022-12-25T23:18:04.283Z,57.93
2022-12-25T23:20:51.274Z,57.90
2022-12-25T23:23:37.262Z,56.97
2022-12-25T23:26:09.074Z,57.97
2022-12-25T23:28:55.348Z,56.17
2022-12-25T23:31:28.434Z,57.87
2022-12-25T23:33:56.675Z,55.60
2022-12-25T23:36:25.057Z,54.07
2022-12-25T23:38:53.171Z,56.10
2022-12-25T23:41:22.837Z,53.97
2022-12-25T23:43:50.922Z,53.30
2022-12-25T23:46:19.066Z,51.43
2022-12-25T23:48:49.039Z,51.33
2022-12-25T23:51:18.276Z,50.80
2022-12-25T23:53:46.314Z,50.73
2022-12-25T23:56:14.918Z,51.23
2022-12-25T23:58:45.292Z,50.40
